Time;durP1;ratioP1;P1;durP2;ratioP2;P2;SDS_P1;SDS_P2;PMS_P1;PMS_P2;Temp;Humidity;BMP_temperature;BMP_pressure;BME280_temperature;BME280_humidity;BME280_pressure;Samples;Min_cycle;Max_cycle;Signal;HPM_P1;HPM_P2
2024/01/01 00:00:16;;;;;;;25.17;21.17;;;11.30;81.70;;;;;;5025749;28;20164;-79
2024/01/01 00:02:43;;;;;;;24.60;20.98;;;11.30;81.70;;;;;;5027168;28;20036;-79
2024/01/01 00:05:11;;;;;;;22.83;20.38;;;11.30;81.70;;;;;;5032122;28;20044;-80
2024/01/01 00:07:36;;;;;;;23.50;21.02;;;11.30;81.70;;;;;;5028882;28;20021;-80
2024/01/01 00:10:03;;;;;;;22.80;20.02;;;11.30;81.60;;;;;;5038577;28;20446;-80
2024/01/01 00:12:29;;;;;;;22.33;19.23;;;11.30;81.70;;;;;;5002196;28;20029;-79
2024/01/01 00:14:55;;;;;;;21.70;19.40;;;11.30;81.60;;;;;;5012880;28;20526;-78
2024/01/01 00:17:20;;;;;;;24.77;19.58;;;11.30;81.60;;;;;;4991565;28;20041;-78
2024/01/01 00:19:46;;;;;;;19.52;16.98;;;11.30;81.60;;;;;;5029339;28;20032;-80
2024/01/01 00:22:12;;;;;;;20.30;17.33;;;11.30;81.60;;;;;;5024880;28;20034;-79
2024/01/01 00:24:37;;;;;;;18.75;16.75;;;11.30;81.60;;;;;;5018137;28;20025;-79
2024/01/01 00:27:04;;;;;;;19.40;16.67;;;11.30;81.70;;;;;;5003539;28;20041;-79
2024/01/01 00:29:29;;;;;;;17.17;15.30;;;11.30;81.60;;;;;;5003331;28;20409;-79
2024/01/01 00:31:55;;;;;;;16.90;15.13;;;11.30;81.60;;;;;;5001659;28;20451;-80
2024/01/01 00:34:21;;;;;;;18.73;14.18;;;11.30;81.60;;;;;;5030214;28;20033;-79
2024/01/01 00:36:48;;;;;;;15.88;13.88;;;11.30;81.60;;;;;;5018831;28;20073;-80
2024/01/01 00:39:14;;;;;;;15.23;13.63;;;11.30;81.60;;;;;;5012308;28;20747;-79
2024/01/01 00:41:40;;;;;;;15.70;13.25;;;11.30;81.60;;;;;;5040414;28;20037;-81
2024/01/01 00:44:06;;;;;;;12.70;11.07;;;11.30;81.60;;;;;;5026448;28;20034;-79
2024/01/01 00:46:32;;;;;;;13.23;10.65;;;11.30;81.60;;;;;;5030505;28;20030;-81
2024/01/01 00:48:58;;;;;;;12.85;10.50;;;11.30;81.60;;;;;;5013071;28;20043;-79
2024/01/01 00:51:24;;;;;;;11.05;9.30;;;11.30;81.60;;;;;;5029153;28;20377;-78
2024/01/01 00:53:51;;;;;;;11.30;8.95;;;11.30;81.60;;;;;;5030055;28;20486;-79
2024/01/01 00:56:17;;;;;;;12.20;8.75;;;11.30;81.60;;;;;;5028201;28;20045;-79
2024/01/01 00:58:42;;;;;;;9.85;7.53;;;11.30;81.60;;;;;;4990570;28;20105;-79
2024/01/01 01:01:08;;;;;;;9.68;8.13;;;11.30;81.60;;;;;;5010330;28;20041;-79
2024/01/01 01:03:35;;;;;;;9.30;7.55;;;11.30;81.60;;;;;;5014251;28;20048;-79
2024/01/01 01:06:02;;;;;;;9.90;7.40;;;11.30;81.60;;;;;;5016430;28;20029;-79
2024/01/01 01:08:28;;;;;;;8.57;6.88;;;11.30;81.60;;;;;;5031726;28;20493;-80
2024/01/01 01:10:54;;;;;;;8.95;6.68;;;11.30;81.60;;;;;;5028095;28;20032;-78
2024/01/01 01:13:19;;;;;;;8.23;6.40;;;11.30;81.60;;;;;;5027594;28;20032;-80
2024/01/01 01:15:46;;;;;;;7.45;5.43;;;11.30;81.60;;;;;;5010372;28;20493;-78
2024/01/01 01:18:11;;;;;;;7.07;5.68;;;11.30;81.60;;;;;;5006197;28;20053;-79
2024/01/01 01:20:37;;;;;;;7.18;5.05;;;11.30;81.60;;;;;;5006564;28;20037;-80
2024/01/01 01:23:03;;;;;;;5.85;4.50;;;11.20;81.50;;;;;;5032535;28;20033;-81
2024/01/01 01:25:30;;;;;;;6.97;4.93;;;11.20;81.60;;;;;;5031500;28;20144;-79
2024/01/01 01:27:57;;;;;;;6.50;4.65;;;11.20;81.50;;;;;;5012309;28;20086;-80
2024/01/01 01:30:23;;;;;;;6.45;4.40;;;11.30;81.60;;;;;;5026141;28;20491;-80
2024/01/01 01:32:49;;;;;;;6.22;4.03;;;11.20;81.60;;;;;;5028783;28;20121;-83
2024/01/01 01:35:15;;;;;;;5.40;3.83;;;11.20;81.60;;;;;;5027374;28;20036;-79
2024/01/01 01:37:40;;;;;;;4.68;3.58;;;11.30;81.70;;;;;;5011904;28;20504;-79
2024/01/01 01:40:07;;;;;;;4.50;3.35;;;11.20;81.60;;;;;;5040202;28;20032;-79
2024/01/01 01:42:33;;;;;;;5.00;3.25;;;11.20;81.60;;;;;;5031452;28;20035;-80
2024/01/01 01:44:58;;;;;;;4.35;2.67;;;11.20;81.60;;;;;;5010954;28;20716;-80
2024/01/01 01:47:26;;;;;;;4.07;2.80;;;11.20;81.60;;;;;;5020472;28;20099;-79
2024/01/01 01:49:52;;;;;;;4.63;3.17;;;11.20;81.60;;;;;;5022895;28;20086;-79
2024/01/01 01:52:18;;;;;;;4.10;3.20;;;11.20;81.60;;;;;;5009059;28;20044;-79
2024/01/01 01:54:46;;;;;;;4.00;2.60;;;11.20;81.60;;;;;;5008151;28;20433;-79
2024/01/01 01:57:14;;;;;;;4.35;2.90;;;11.20;81.60;;;;;;5026494;28;20049;-79
2024/01/01 01:59:45;;;;;;;3.15;2.40;;;11.20;81.60;;;;;;5037969;28;20033;-79
2024/01/01 02:02:12;;;;;;;3.65;2.45;;;11.20;81.60;;;;;;5002222;28;20045;-80
2024/01/01 02:04:38;;;;;;;3.83;2.58;;;11.20;81.60;;;;;;5043413;28;20469;-81
2024/01/01 02:07:04;;;;;;;3.65;2.55;;;11.20;81.60;;;;;;5019884;28;20040;-81
2024/01/01 02:09:31;;;;;;;3.97;2.40;;;11.10;81.60;;;;;;5019771;28;20098;-80
2024/01/01 02:11:57;;;;;;;3.15;2.30;;;11.10;81.60;;;;;;4989475;28;20545;-81
2024/01/01 02:14:24;;;;;;;3.63;2.20;;;11.10;81.50;;;;;;5033665;28;20103;-81
2024/01/01 02:16:50;;;;;;;2.65;2.03;;;11.20;81.60;;;;;;5030605;28;20095;-79
2024/01/01 02:19:19;;;;;;;3.45;2.38;;;11.20;81.60;;;;;;5024506;28;20030;-81
2024/01/01 02:21:46;;;;;;;3.13;2.30;;;11.10;81.60;;;;;;5023727;28;20026;-80
2024/01/01 02:24:15;;;;;;;3.10;2.17;;;11.10;81.60;;;;;;5031235;28;20060;-80
2024/01/01 02:26:43;;;;;;;3.00;2.03;;;11.10;81.60;;;;;;5030729;28;20040;-81
2024/01/01 02:29:12;;;;;;;2.60;2.03;;;11.10;81.60;;;;;;5025484;28;20044;-82
2024/01/01 02:31:37;;;;;;;2.50;2.00;;;11.10;81.60;;;;;;5038638;28;20040;-80
2024/01/01 02:34:04;;;;;;;2.97;2.10;;;11.10;81.60;;;;;;5000665;28;20424;-80
2024/01/01 02:36:34;;;;;;;3.17;2.10;;;11.10;81.60;;;;;;5040049;28;20036;-81
2024/01/01 02:39:00;;;;;;;2.63;2.00;;;11.10;81.60;;;;;;5046535;28;20024;-81
2024/01/01 02:41:26;;;;;;;1.95;1.70;;;11.10;81.60;;;;;;5002811;28;20370;-81
2024/01/01 02:43:51;;;;;;;2.95;2.00;;;11.10;81.60;;;;;;5042657;28;20037;-81
2024/01/01 02:46:17;;;;;;;2.10;1.67;;;11.10;81.60;;;;;;4997858;28;20025;-81
2024/01/01 02:48:43;;;;;;;2.75;2.05;;;11.10;81.60;;;;;;5024203;28;20099;-82
2024/01/01 02:51:09;;;;;;;1.80;1.55;;;11.10;81.60;;;;;;5023541;28;20045;-81
2024/01/01 02:53:34;;;;;;;2.53;2.00;;;11.10;81.60;;;;;;5031676;28;20120;-81
2024/01/01 02:56:00;;;;;;;2.92;1.90;;;11.10;81.60;;;;;;5027487;28;20127;-81
2024/01/01 02:58:27;;;;;;;3.38;2.08;;;11.00;81.50;;;;;;5033016;28;20473;-81
2024/01/01 03:00:52;;;;;;;3.13;1.90;;;11.10;81.60;;;;;;5019598;28;20029;-81
2024/01/01 03:03:20;;;;;;;3.85;2.00;;;11.00;81.50;;;;;;5046021;28;20090;-81
2024/01/01 03:05:46;;;;;;;3.05;1.70;;;11.00;81.60;;;;;;5041945;28;20029;-81
2024/01/01 03:08:12;;;;;;;3.25;1.90;;;11.00;81.60;;;;;;5027337;28;20036;-82
2024/01/01 03:10:38;;;;;;;2.17;1.70;;;11.00;81.60;;;;;;5014074;28;20167;-82
2024/01/01 03:13:04;;;;;;;2.17;1.55;;;11.00;81.60;;;;;;5005087;28;20116;-81
2024/01/01 03:15:29;;;;;;;2.85;1.80;;;11.00;81.60;;;;;;5024598;28;20044;-81
2024/01/01 03:17:55;;;;;;;1.70;1.42;;;11.00;81.60;;;;;;5015622;28;20029;-81
2024/01/01 03:20:23;;;;;;;2.25;1.55;;;11.00;81.70;;;;;;5034885;28;20130;-81
2024/01/01 03:22:49;;;;;;;3.20;1.60;;;11.00;81.70;;;;;;5020830;28;20033;-80
2024/01/01 03:25:15;;;;;;;2.58;1.73;;;11.00;81.70;;;;;;5024794;28;20078;-81
2024/01/01 03:27:43;;;;;;;1.73;1.52;;;11.00;81.70;;;;;;5009117;28;20025;-81
2024/01/01 03:30:13;;;;;;;2.65;1.55;;;10.90;81.70;;;;;;5006345;28;20049;-81
2024/01/01 03:32:40;;;;;;;2.55;1.50;;;10.90;81.70;;;;;;5043302;28;20119;-81
2024/01/01 03:35:09;;;;;;;1.88;1.40;;;10.90;81.70;;;;;;5025840;28;20061;-81
2024/01/01 03:37:35;;;;;;;1.88;1.40;;;10.90;81.70;;;;;;5021718;28;20032;-81
2024/01/01 03:40:03;;;;;;;3.28;1.70;;;10.90;81.70;;;;;;5024337;28;20121;-80
2024/01/01 03:42:29;;;;;;;2.35;1.55;;;10.90;81.70;;;;;;5032430;28;20040;-81
2024/01/01 03:44:55;;;;;;;2.95;1.70;;;10.90;81.70;;;;;;5033805;28;20469;-81
2024/01/01 03:47:21;;;;;;;1.65;1.52;;;10.90;81.70;;;;;;5034312;28;20508;-81
2024/01/01 03:49:46;;;;;;;2.00;1.50;;;10.80;81.70;;;;;;5033551;28;20632;-80
2024/01/01 03:52:13;;;;;;;2.47;1.40;;;10.80;81.70;;;;;;5032836;28;20052;-81
2024/01/01 03:54:39;;;;;;;2.63;1.20;;;10.80;81.70;;;;;;5007205;28;20068;-81
2024/01/01 03:57:05;;;;;;;2.80;1.52;;;10.80;81.70;;;;;;5042825;28;20065;-81
2024/01/01 03:59:30;;;;;;;2.45;1.25;;;10.80;81.70;;;;;;5030670;28;20092;-80
2024/01/01 04:01:56;;;;;;;2.75;1.77;;;10.80;81.80;;;;;;5030494;28;20033;-81
2024/01/01 04:04:22;;;;;;;2.38;1.42;;;10.80;81.80;;;;;;4990494;28;20383;-79
2024/01/01 04:06:48;;;;;;;2.08;1.30;;;10.80;81.70;;;;;;5024641;28;20037;-80
2024/01/01 04:09:13;;;;;;;2.13;1.30;;;10.80;81.70;;;;;;5016939;28;20069;-80
2024/01/01 04:11:39;;;;;;;3.05;1.52;;;10.80;81.80;;;;;;5006716;28;20476;-80
2024/01/01 04:14:05;;;;;;;1.63;1.30;;;10.80;81.80;;;;;;5048567;28;20026;-80
2024/01/01 04:16:31;;;;;;;2.47;1.63;;;10.80;81.80;;;;;;5045300;28;20036;-81
2024/01/01 04:18:57;;;;;;;2.50;1.48;;;10.70;81.80;;;;;;5034646;28;20420;-80
2024/01/01 04:21:23;;;;;;;2.40;1.25;;;10.70;81.80;;;;;;5034615;28;20057;-80
2024/01/01 04:23:49;;;;;;;2.22;1.50;;;10.70;81.80;;;;;;5030211;28;20056;-80
2024/01/01 04:26:14;;;;;;;2.15;1.50;;;10.70;81.70;;;;;;4999242;28;20377;-80
2024/01/01 04:28:41;;;;;;;2.53;1.27;;;10.70;81.80;;;;;;5040961;28;20040;-82
2024/01/01 04:31:07;;;;;;;2.88;1.30;;;10.70;81.80;;;;;;5017108;28;20041;-81
2024/01/01 04:33:33;;;;;;;2.15;1.30;;;10.70;81.80;;;;;;5039906;28;20086;-80
2024/01/01 04:35:59;;;;;;;2.60;1.52;;;10.70;81.80;;;;;;5042006;28;20401;-80
2024/01/01 04:38:24;;;;;;;3.20;1.50;;;10.70;81.80;;;;;;5033628;28;20397;-79
2024/01/01 04:40:51;;;;;;;2.20;1.30;;;10.70;81.80;;;;;;5030455;28;20033;-81
2024/01/01 04:43:16;;;;;;;2.53;1.25;;;10.70;81.80;;;;;;5033610;28;20025;-79
2024/01/01 04:45:43;;;;;;;1.80;1.27;;;10.70;81.80;;;;;;5035342;28;20075;-80
2024/01/01 04:48:09;;;;;;;2.90;1.45;;;10.70;81.80;;;;;;5049595;28;20044;-80
2024/01/01 04:50:35;;;;;;;2.05;1.30;;;10.70;81.80;;;;;;5026518;28;20045;-80
2024/01/01 04:53:01;;;;;;;2.72;1.40;;;10.60;81.80;;;;;;5016515;28;20072;-80
2024/01/01 04:55:27;;;;;;;3.38;1.45;;;10.70;81.80;;;;;;5012613;28;20079;-80
2024/01/01 04:57:53;;;;;;;2.55;1.58;;;10.70;81.80;;;;;;5040596;28;20049;-81
2024/01/01 05:00:19;;;;;;;1.85;1.15;;;10.70;81.80;;;;;;5036661;28;20035;-80
2024/01/01 05:02:44;;;;;;;2.17;1.35;;;10.70;81.80;;;;;;5029370;28;20078;-80
2024/01/01 05:05:11;;;;;;;3.13;1.55;;;10.60;81.70;;;;;;5033205;28;20531;-81
2024/01/01 05:07:40;;;;;;;2.25;1.30;;;10.60;81.70;;;;;;5009686;28;20042;-81
2024/01/01 05:10:06;;;;;;;3.45;1.50;;;10.60;81.70;;;;;;5042120;28;20040;-80
2024/01/01 05:12:32;;;;;;;1.80;1.15;;;10.60;81.70;;;;;;5044836;28;20033;-81
2024/01/01 05:14:59;;;;;;;2.42;1.65;;;10.60;81.70;;;;;;5016754;28;20037;-80
2024/01/01 05:17:25;;;;;;;3.33;1.30;;;10.60;81.80;;;;;;5030449;28;20079;-80
2024/01/01 05:19:51;;;;;;;1.25;1.15;;;10.70;81.80;;;;;;5041522;28;20444;-80
2024/01/01 05:22:18;;;;;;;2.47;1.23;;;10.60;81.70;;;;;;5009029;28;20033;-80
2024/01/01 05:24:43;;;;;;;3.42;1.63;;;10.70;81.80;;;;;;5013807;28;20489;-80
2024/01/01 05:27:09;;;;;;;2.03;1.40;;;10.60;81.70;;;;;;5017856;28;20037;-81
2024/01/01 05:29:35;;;;;;;2.50;1.48;;;10.60;81.70;;;;;;5011016;28;20068;-83
2024/01/01 05:32:01;;;;;;;2.72;1.20;;;10.60;81.70;;;;;;5029131;28;20030;-81
2024/01/01 05:34:27;;;;;;;3.35;1.27;;;10.70;81.70;;;;;;5035118;28;20167;-80
2024/01/01 05:36:53;;;;;;;3.20;1.50;;;10.60;81.60;;;;;;5034222;28;20128;-82
2024/01/01 05:39:19;;;;;;;2.75;1.33;;;10.60;81.70;;;;;;5035074;28;20400;-81
2024/01/01 05:41:45;;;;;;;1.60;1.10;;;10.60;81.60;;;;;;5018505;28;20041;-81
2024/01/01 05:44:10;;;;;;;1.70;1.13;;;10.60;81.60;;;;;;5005579;28;20029;-81
2024/01/01 05:46:36;;;;;;;1.98;1.20;;;10.60;81.70;;;;;;5023257;28;20108;-81
2024/01/01 05:49:02;;;;;;;2.20;1.30;;;10.60;81.70;;;;;;5035139;28;20465;-80
2024/01/01 05:51:28;;;;;;;2.17;1.40;;;10.60;81.70;;;;;;5017722;28;20021;-81
2024/01/01 05:53:57;;;;;;;2.08;1.27;;;10.60;81.70;;;;;;5023646;28;20033;-80
2024/01/01 05:56:24;;;;;;;2.90;1.20;;;10.60;81.70;;;;;;5044927;28;20033;-81
2024/01/01 05:58:50;;;;;;;2.97;1.20;;;10.60;81.70;;;;;;5043835;28;20040;-81
2024/01/01 06:01:16;;;;;;;3.00;1.33;;;10.60;81.70;;;;;;5032069;28;20384;-80
2024/01/01 06:03:46;;;;;;;2.72;1.30;;;10.60;81.70;;;;;;5012089;28;20393;-81
2024/01/01 06:06:12;;;;;;;1.20;1.10;;;10.60;81.80;;;;;;5041735;28;20037;-81
2024/01/01 06:08:38;;;;;;;2.00;1.30;;;10.50;81.70;;;;;;5041662;28;20381;-80
2024/01/01 06:11:04;;;;;;;1.75;1.20;;;10.60;81.80;;;;;;5032870;28;20040;-81
2024/01/01 06:13:30;;;;;;;1.83;1.30;;;10.50;81.80;;;;;;4993284;28;20394;-80
2024/01/01 06:15:56;;;;;;;2.63;1.48;;;10.60;81.80;;;;;;5040987;28;20031;-81
2024/01/01 06:18:24;;;;;;;2.83;1.38;;;10.60;81.80;;;;;;5012453;28;20053;-80
2024/01/01 06:20:50;;;;;;;2.28;1.20;;;10.50;81.70;;;;;;5027188;28;20120;-81
2024/01/01 06:23:16;;;;;;;2.25;1.13;;;10.60;81.70;;;;;;5033751;28;20145;-80
2024/01/01 06:25:41;;;;;;;3.28;1.30;;;10.50;81.70;;;;;;5011808;28;20461;-80
2024/01/01 06:28:07;;;;;;;2.92;1.40;;;10.50;81.70;;;;;;5020711;28;20485;-81
2024/01/01 06:30:34;;;;;;;1.52;1.35;;;10.60;81.70;;;;;;5043599;28;20473;-81
2024/01/01 06:33:02;;;;;;;2.20;1.20;;;10.50;82.60;;;;;;5023414;28;20079;-82
2024/01/01 06:35:30;;;;;;;4.28;1.63;;;10.50;81.70;;;;;;5039241;28;20033;-81
2024/01/01 06:37:57;;;;;;;3.47;1.60;;;10.50;81.80;;;;;;5005071;28;20021;-81
2024/01/01 06:40:23;;;;;;;1.95;1.10;;;10.50;81.70;;;;;;5024869;28;20328;-81
2024/01/01 06:42:48;;;;;;;2.55;1.40;;;10.50;81.70;;;;;;5030825;28;20055;-81
2024/01/01 06:45:16;;;;;;;2.47;1.40;;;10.50;81.70;;;;;;5008539;28;20052;-82
2024/01/01 06:47:43;;;;;;;2.65;1.40;;;10.50;81.80;;;;;;5040293;28;20079;-81
2024/01/01 06:50:09;;;;;;;2.50;1.20;;;10.50;81.80;;;;;;5030301;28;20120;-80
2024/01/01 06:52:35;;;;;;;1.27;1.17;;;10.50;81.70;;;;;;5016217;28;20037;-81
2024/01/01 06:55:01;;;;;;;2.05;1.40;;;10.40;81.70;;;;;;5002693;28;20057;-80
2024/01/01 06:57:27;;;;;;;3.20;1.65;;;10.50;81.80;;;;;;5027974;28;20033;-80
2024/01/01 06:59:54;;;;;;;1.83;1.10;;;10.50;81.80;;;;;;5031969;28;20049;-81
2024/01/01 07:02:20;;;;;;;1.83;1.30;;;10.40;81.70;;;;;;5042217;28;20198;-80
2024/01/01 07:04:46;;;;;;;2.13;1.20;;;10.50;81.80;;;;;;5034523;28;20547;-80
2024/01/01 07:07:11;;;;;;;1.92;1.30;;;10.40;81.80;;;;;;5033177;28;20028;-81
2024/01/01 07:09:38;;;;;;;2.72;1.45;;;10.40;81.80;;;;;;5030548;28;20041;-81
2024/01/01 07:12:21;;;;;;;2.33;1.48;;;10.40;81.80;;;;;;5023378;28;20426;-80
2024/01/01 07:14:47;;;;;;;2.03;1.10;;;10.40;81.90;;;;;;5039613;28;20021;-81
2024/01/01 07:17:16;;;;;;;2.95;1.63;;;10.40;81.80;;;;;;5043142;28;20024;-81
2024/01/01 07:19:46;;;;;;;2.38;1.30;;;10.40;81.90;;;;;;5029572;28;20587;-81
2024/01/01 07:22:12;;;;;;;2.80;1.58;;;10.40;82.50;;;;;;5046029;28;20029;-81
2024/01/01 07:24:38;;;;;;;2.22;1.20;;;10.40;81.90;;;;;;5027147;28;20826;-80
2024/01/01 07:27:04;;;;;;;2.13;1.20;;;10.30;81.90;;;;;;5012124;28;20087;-81
2024/01/01 07:29:30;;;;;;;2.88;1.48;;;10.40;81.90;;;;;;5030698;28;20120;-81
2024/01/01 07:31:56;;;;;;;3.15;1.38;;;10.30;81.80;;;;;;5007720;28;20124;-80
2024/01/01 07:34:26;;;;;;;2.92;1.50;;;10.30;81.80;;;;;;5024124;28;20102;-81
2024/01/01 07:36:54;;;;;;;1.83;1.20;;;10.40;81.90;;;;;;5008146;28;20033;-81
2024/01/01 07:39:20;;;;;;;2.88;1.60;;;10.30;81.80;;;;;;4997213;28;20060;-81
2024/01/01 07:41:53;;;;;;;1.65;1.30;;;10.30;81.80;;;;;;5032427;28;20025;-82
2024/01/01 07:44:21;;;;;;;3.38;1.75;;;10.30;81.80;;;;;;5035084;28;20044;-81
2024/01/01 07:46:49;;;;;;;2.58;1.48;;;10.30;81.80;;;;;;5049190;28;20029;-81
2024/01/01 07:49:16;;;;;;;2.70;1.50;;;10.30;81.80;;;;;;5018380;28;20523;-81
2024/01/01 07:51:42;;;;;;;1.88;1.50;;;10.30;81.80;;;;;;5028239;28;20041;-81
2024/01/01 07:54:08;;;;;;;3.60;1.60;;;10.30;81.80;;;;;;5034236;28;20029;-80
2024/01/01 07:56:37;;;;;;;2.60;1.60;;;10.30;81.80;;;;;;5018412;28;20477;-81
2024/01/01 07:59:03;;;;;;;2.92;1.80;;;10.30;81.80;;;;;;5014977;28;20045;-81
2024/01/01 08:01:29;;;;;;;1.88;1.70;;;10.30;81.80;;;;;;5046399;28;20051;-80
2024/01/01 08:03:55;;;;;;;3.28;1.70;;;10.30;81.80;;;;;;5035668;28;20052;-80
2024/01/01 08:06:21;;;;;;;2.00;1.38;;;10.30;81.80;;;;;;5033041;28;20038;-80
2024/01/01 08:08:47;;;;;;;2.15;1.55;;;10.30;81.80;;;;;;5047728;28;20036;-82
2024/01/01 08:11:13;;;;;;;3.22;1.83;;;10.30;81.80;;;;;;5035798;28;20040;-81
2024/01/01 08:13:40;;;;;;;2.42;1.60;;;10.30;81.80;;;;;;5044994;28;20029;-80
2024/01/01 08:16:06;;;;;;;2.22;1.65;;;10.30;81.80;;;;;;5026486;28;20549;-80
2024/01/01 08:18:32;;;;;;;3.15;1.58;;;10.20;81.70;;;;;;5019664;28;20029;-81
2024/01/01 08:20:58;;;;;;;2.42;1.48;;;10.20;81.80;;;;;;5031588;28;20035;-83
2024/01/01 08:23:24;;;;;;;1.65;1.42;;;10.30;81.80;;;;;;5039494;28;20408;-81
2024/01/01 08:25:50;;;;;;;1.90;1.48;;;10.20;81.80;;;;;;5028037;28;20087;-81
2024/01/01 08:28:16;;;;;;;2.22;1.55;;;10.20;81.90;;;;;;5048268;28;20036;-80
2024/01/01 08:30:43;;;;;;;2.50;1.40;;;10.20;81.80;;;;;;5047077;28;20037;-79
2024/01/01 08:33:09;;;;;;;2.25;1.73;;;10.20;81.90;;;;;;5034258;28;20033;-80
2024/01/01 08:35:35;;;;;;;3.38;1.58;;;10.20;81.90;;;;;;5030569;28;20358;-81
2024/01/01 08:38:01;;;;;;;2.10;1.42;;;10.20;81.90;;;;;;5033913;28;20025;-80
2024/01/01 08:40:27;;;;;;;2.63;1.70;;;10.20;81.90;;;;;;5008427;28;20394;-80
2024/01/01 08:42:53;;;;;;;3.55;1.40;;;10.20;81.90;;;;;;5015637;28;20029;-81
2024/01/01 08:45:21;;;;;;;3.63;1.73;;;10.20;81.90;;;;;;5044271;28;21051;-80
2024/01/01 08:47:47;;;;;;;2.53;1.70;;;10.20;81.90;;;;;;5035099;28;20052;-81
2024/01/01 08:50:16;;;;;;;2.65;1.70;;;10.20;81.90;;;;;;4995101;28;20033;-81
2024/01/01 08:52:45;;;;;;;1.85;1.40;;;10.20;82.00;;;;;;4994192;28;20469;-81
2024/01/01 08:55:11;;;;;;;1.70;1.38;;;10.20;82.00;;;;;;5023670;28;20033;-79
2024/01/01 08:57:37;;;;;;;1.77;1.42;;;10.20;82.00;;;;;;5029412;28;20129;-79
2024/01/01 09:00:04;;;;;;;1.73;1.30;;;10.20;82.00;;;;;;5011956;28;20057;-81
2024/01/01 09:02:30;;;;;;;2.35;1.42;;;10.20;82.00;;;;;;5033016;28;20417;-80
2024/01/01 09:04:56;;;;;;;2.20;1.50;;;10.20;82.00;;;;;;5047217;28;20029;-82
2024/01/01 09:07:23;;;;;;;3.10;1.50;;;10.20;82.00;;;;;;5016104;28;20029;-81
2024/01/01 09:09:49;;;;;;;3.38;1.90;;;10.20;82.00;;;;;;5013834;28;20067;-81
2024/01/01 09:12:16;;;;;;;1.90;1.40;;;10.20;82.00;;;;;;5026410;28;20501;-80
2024/01/01 09:14:42;;;;;;;1.90;1.25;;;10.20;82.10;;;;;;5031688;28;20033;-81
2024/01/01 09:17:08;;;;;;;2.63;1.52;;;10.20;82.00;;;;;;5017945;28;20043;-80
2024/01/01 09:19:36;;;;;;;2.47;1.48;;;10.20;82.00;;;;;;5047951;28;20481;-81
2024/01/01 09:22:03;;;;;;;2.97;1.80;;;10.20;82.00;;;;;;5035021;28;20070;-81
2024/01/01 09:24:28;;;;;;;3.75;1.92;;;10.20;82.00;;;;;;4996647;28;20053;-80
2024/01/01 09:26:54;;;;;;;2.38;1.52;;;10.20;81.90;;;;;;5034143;28;20024;-80
2024/01/01 09:29:20;;;;;;;2.05;1.60;;;10.20;82.00;;;;;;5036073;28;20025;-80
2024/01/01 09:31:46;;;;;;;2.17;1.42;;;10.30;82.00;;;;;;5026444;28;20033;-81
2024/01/01 09:34:12;;;;;;;2.33;1.60;;;10.20;81.90;;;;;;5029867;28;20090;-81
2024/01/01 09:36:37;;;;;;;3.60;1.67;;;10.30;81.90;;;;;;5024645;28;20029;-81
2024/01/01 09:39:03;;;;;;;2.55;1.52;;;10.30;81.90;;;;;;5047078;28;20051;-81
2024/01/01 09:41:30;;;;;;;2.13;1.40;;;10.30;81.90;;;;;;5017568;28;21146;-80
2024/01/01 09:43:56;;;;;;;1.80;1.50;;;10.30;82.00;;;;;;5034221;28;20029;-81
2024/01/01 09:46:23;;;;;;;1.65;1.40;;;10.20;81.90;;;;;;5031119;28;20083;-81
2024/01/01 09:48:49;;;;;;;3.13;1.58;;;10.30;82.00;;;;;;5002679;28;20510;-81
2024/01/01 09:51:15;;;;;;;3.38;1.58;;;10.20;81.90;;;;;;5042311;28;20037;-81
2024/01/01 09:53:47;;;;;;;1.52;1.42;;;10.20;82.00;;;;;;5044121;28;20029;-81
2024/01/01 09:56:12;;;;;;;2.75;1.60;;;10.30;82.10;;;;;;5027864;28;20532;-81
2024/01/01 09:58:41;;;;;;;2.00;1.50;;;10.30;82.00;;;;;;5031838;28;20056;-81
2024/01/01 10:01:12;;;;;;;2.75;1.40;;;10.30;82.00;;;;;;5026999;28;20493;-81
2024/01/01 10:03:39;;;;;;;3.05;1.60;;;10.30;82.00;;;;;;5014697;28;20098;-82
2024/01/01 10:06:11;;;;;;;3.13;1.50;;;10.30;82.00;;;;;;5029897;28;20029;-82
2024/01/01 10:08:38;;;;;;;2.67;1.73;;;10.30;82.10;;;;;;5026630;28;20029;-82
2024/01/01 10:11:20;;;;;;;3.03;1.70;;;10.30;82.00;;;;;;5034013;28;20079;-80
2024/01/01 10:13:47;;;;;;;1.48;1.33;;;10.30;82.10;;;;;;5025060;28;20028;-82
2024/01/01 10:16:26;;;;;;;1.50;1.40;;;10.30;82.10;;;;;;5022984;28;20056;-80
2024/01/01 10:18:56;;;;;;;2.15;1.40;;;10.30;82.10;;;;;;5042308;28;20470;-81
2024/01/01 10:21:30;;;;;;;1.40;1.30;;;10.30;82.10;;;;;;5038601;28;20025;-82
2024/01/01 10:23:57;;;;;;;1.58;1.40;;;10.30;82.10;;;;;;5024160;28;20457;-82
2024/01/01 10:26:24;;;;;;;1.95;1.40;;;10.30;82.10;;;;;;5012701;28;20040;-81
2024/01/01 10:28:50;;;;;;;2.17;1.70;;;10.30;82.10;;;;;;5024442;28;20044;-80
2024/01/01 10:31:16;;;;;;;2.35;1.40;;;10.30;82.10;;;;;;4996584;28;20133;-81
2024/01/01 10:33:47;;;;;;;1.83;1.63;;;10.30;82.10;;;;;;5041374;28;20048;-81
2024/01/01 10:36:16;;;;;;;2.58;1.65;;;10.30;82.10;;;;;;5030240;28;20025;-82
2024/01/01 10:38:44;;;;;;;1.30;1.20;;;10.40;82.10;;;;;;5025432;28;20029;-80
2024/01/01 10:41:12;;;;;;;1.38;1.20;;;10.40;82.10;;;;;;5031862;28;20125;-81
2024/01/01 10:43:40;;;;;;;1.42;1.33;;;10.40;82.70;;;;;;5040674;28;20025;-82
2024/01/01 10:46:06;;;;;;;1.30;1.20;;;10.40;82.10;;;;;;5027892;28;20147;-81
2024/01/01 10:48:33;;;;;;;1.88;1.20;;;10.40;82.00;;;;;;5030622;28;20052;-80
2024/01/01 10:51:10;;;;;;;1.65;1.30;;;10.40;82.00;;;;;;5030094;28;20065;-83
2024/01/01 10:53:54;;;;;;;1.98;1.45;;;10.40;82.10;;;;;;5030678;28;20040;-84
2024/01/01 10:56:32;;;;;;;3.53;1.60;;;10.40;82.10;;;;;;5043256;28;20063;-81
2024/01/01 10:59:18;;;;;;;1.65;1.38;;;10.40;82.10;;;;;;5028072;28;20508;-81
2024/01/01 11:01:48;;;;;;;1.48;1.20;;;10.40;82.10;;;;;;5041852;28;20106;-82
2024/01/01 11:04:18;;;;;;;1.40;1.30;;;10.40;82.10;;;;;;5023995;28;20048;-82
2024/01/01 11:06:47;;;;;;;1.33;1.23;;;10.40;82.10;;;;;;5033584;28;20028;-82
2024/01/01 11:09:32;;;;;;;1.63;1.30;;;10.40;82.10;;;;;;5028235;28;20021;-82
2024/01/01 11:12:00;;;;;;;1.63;1.40;;;10.40;82.20;;;;;;5012774;28;20037;-81
2024/01/01 11:14:31;;;;;;;1.73;1.30;;;10.40;82.20;;;;;;5048099;28;20280;-81
2024/01/01 11:17:10;;;;;;;1.95;1.20;;;10.40;82.20;;;;;;5020865;28;20034;-82
2024/01/01 11:19:39;;;;;;;2.95;1.60;;;10.40;82.40;;;;;;5024425;28;20033;-81
2024/01/01 11:22:20;;;;;;;2.45;1.52;;;10.40;82.30;;;;;;5051534;28;20079;-82
2024/01/01 11:24:47;;;;;;;1.75;1.50;;;10.40;82.30;;;;;;5025377;28;20028;-82
2024/01/01 11:27:26;;;;;;;1.75;1.20;;;10.40;82.20;;;;;;5036126;28;20040;-83
2024/01/01 11:29:52;;;;;;;1.67;1.33;;;10.40;82.80;;;;;;5038902;28;20049;-81
2024/01/01 11:32:19;;;;;;;3.33;1.40;;;10.50;82.20;;;;;;5026190;28;20465;-83
2024/01/01 11:35:05;;;;;;;1.55;1.38;;;10.50;82.20;;;;;;5036374;28;20026;-80
2024/01/01 11:37:32;;;;;;;1.63;1.30;;;10.50;82.20;;;;;;5013438;28;20174;-81
2024/01/01 11:40:03;;;;;;;1.83;1.33;;;10.50;82.10;;;;;;5038685;28;20211;-81
2024/01/01 11:42:29;;;;;;;2.75;1.40;;;10.50;82.20;;;;;;5029069;28;20025;-81
2024/01/01 11:45:09;;;;;;;2.15;1.38;;;10.50;82.10;;;;;;5019959;28;20123;-81
2024/01/01 11:47:36;;;;;;;3.47;1.70;;;10.50;82.20;;;;;;5036418;28;20381;-80
2024/01/01 11:50:02;;;;;;;2.45;1.73;;;10.50;82.10;;;;;;5021371;28;20396;-81
2024/01/01 11:52:29;;;;;;;1.33;1.23;;;10.50;82.10;;;;;;5026292;28;20393;-81
2024/01/01 11:54:54;;;;;;;2.55;1.58;;;10.50;82.10;;;;;;5030658;28;20029;-80
2024/01/01 11:57:20;;;;;;;1.48;1.30;;;10.50;82.10;;;;;;5004807;28;20771;-80
2024/01/01 11:59:49;;;;;;;3.10;1.60;;;10.50;82.00;;;;;;5025163;28;20509;-80
2024/01/01 12:02:19;;;;;;;1.42;1.30;;;10.50;82.00;;;;;;5024874;28;20457;-80
2024/01/01 12:04:47;;;;;;;1.92;1.20;;;10.60;82.10;;;;;;5029426;28;20037;-80
2024/01/01 12:07:39;;;;;;;1.60;1.50;;;10.50;82.00;;;;;;5044534;28;20391;-80
2024/01/01 12:10:09;;;;;;;1.40;1.20;;;10.60;82.20;;;;;;5017485;28;20095;-80
2024/01/01 12:12:38;;;;;;;1.42;1.33;;;10.50;82.10;;;;;;5039683;28;20041;-80
2024/01/01 12:15:30;;;;;;;2.22;1.48;;;10.50;82.00;;;;;;5023690;28;20036;-81
2024/01/01 12:17:56;;;;;;;1.38;1.20;;;10.50;82.10;;;;;;5040747;28;20044;-80
2024/01/01 12:20:25;;;;;;;1.67;1.20;;;10.50;82.10;;;;;;5021865;28;20465;-80
2024/01/01 12:22:54;;;;;;;1.88;1.30;;;10.50;82.10;;;;;;5037177;28;20027;-80
2024/01/01 12:25:23;;;;;;;2.58;1.40;;;10.50;82.10;;;;;;5044280;28;20025;-79
2024/01/01 12:28:08;;;;;;;2.67;1.50;;;10.50;82.10;;;;;;5029256;28;20033;-81
2024/01/01 12:30:36;;;;;;;2.63;1.42;;;10.50;82.20;;;;;;5023395;28;20474;-80
2024/01/01 12:33:02;;;;;;;2.30;1.40;;;10.50;82.70;;;;;;5026773;28;20059;-82
2024/01/01 12:35:28;;;;;;;1.88;1.40;;;10.50;82.20;;;;;;5028584;28;20040;-80
2024/01/01 12:37:54;;;;;;;1.30;1.20;;;10.50;82.20;;;;;;5036527;28;20389;-80
2024/01/01 12:40:20;;;;;;;2.60;1.33;;;10.50;82.20;;;;;;5011492;28;20044;-79
2024/01/01 12:42:47;;;;;;;2.95;1.90;;;10.50;82.20;;;;;;4998406;28;20025;-80
2024/01/01 12:45:13;;;;;;;2.08;1.40;;;10.50;82.10;;;;;;5040182;28;20064;-80